sensor_id;sensor_type;location;lat;lon;timestamp;temperature;humidity
26224;DHT22;14820;48.682;8.890;2023-05-29T00:01:33;12.10;99.90
26224;DHT22;14820;48.682;8.890;2023-05-29T00:03:59;12.00;99.90
26224;DHT22;14820;48.682;8.890;2023-05-29T00:06:25;11.90;99.90
26224;DHT22;14820;48.682;8.890;2023-05-29T00:08:50;11.90;99.90
26224;DHT22;14820;48.682;8.890;2023-05-29T00:11:16;11.90;99.90
26224;DHT22;14820;48.682;8.890;2023-05-29T00:13:42;11.90;99.90
26224;DHT22;14820;48.682;8.890;2023-05-29T00:16:07;11.80;99.90
26224;DHT22;14820;48.682;8.890;2023-05-29T00:18:35;11.80;99.90
26224;DHT22;14820;48.682;8.890;2023-05-29T00:21:01;11.70;99.90
26224;DHT22;14820;48.682;8.890;2023-05-29T00:23:27;11.70;99.90
26224;DHT22;14820;48.682;8.890;2023-05-29T00:25:53;11.60;99.90
26224;DHT22;14820;48.682;8.890;2023-05-29T00:28:18;11.50;99.90
26224;DHT22;14820;48.682;8.890;2023-05-29T00:30:44;11.50;99.90
26224;DHT22;14820;48.682;8.890;2023-05-29T00:33:10;11.50;99.90
26224;DHT22;14820;48.682;8.890;2023-05-29T00:35:36;11.40;99.90
26224;DHT22;14820;48.682;8.890;2023-05-29T00:38:02;11.30;99.90
26224;DHT22;14820;48.682;8.890;2023-05-29T00:40:27;11.30;99.90
26224;DHT22;14820;48.682;8.890;2023-05-29T00:42:53;11.30;99.90
26224;DHT22;14820;48.682;8.890;2023-05-29T00:45:19;11.20;99.90
26224;DHT22;14820;48.682;8.890;2023-05-29T00:47:45;11.20;99.90
26224;DHT22;14820;48.682;8.890;2023-05-29T00:50:12;11.20;99.90
26224;DHT22;14820;48.682;8.890;2023-05-29T00:52:40;11.20;99.90
26224;DHT22;14820;48.682;8.890;2023-05-29T00:55:07;11.20;99.90
26224;DHT22;14820;48.682;8.890;2023-05-29T00:57:34;11.10;99.90
26224;DHT22;14820;48.682;8.890;2023-05-29T01:00:02;11.10;99.90
26224;DHT22;14820;48.682;8.890;2023-05-29T01:02:38;11.10;99.90
26224;DHT22;14820;48.682;8.890;2023-05-29T01:05:04;11.10;99.90
26224;DHT22;14820;48.682;8.890;2023-05-29T01:07:32;11.10;99.90
26224;DHT22;14820;48.682;8.890;2023-05-29T01:09:57;11.00;99.90
26224;DHT22;14820;48.682;8.890;2023-05-29T01:29:00;10.80;99.90
26224;DHT22;14820;48.682;8.890;2023-05-29T01:31:26;10.80;99.90
26224;DHT22;14820;48.682;8.890;2023-05-29T01:33:57;10.90;99.90
26224;DHT22;14820;48.682;8.890;2023-05-29T01:36:24;10.70;99.90
26224;DHT22;14820;48.682;8.890;2023-05-29T01:38:51;10.60;99.90
26224;DHT22;14820;48.682;8.890;2023-05-29T01:41:18;10.60;99.90
26224;DHT22;14820;48.682;8.890;2023-05-29T01:43:45;10.60;99.90
26224;DHT22;14820;48.682;8.890;2023-05-29T01:46:14;10.70;99.90
26224;DHT22;14820;48.682;8.890;2023-05-29T01:48:42;10.60;99.90
26224;DHT22;14820;48.682;8.890;2023-05-29T01:51:09;10.60;99.90
26224;DHT22;14820;48.682;8.890;2023-05-29T01:53:36;10.60;99.90
26224;DHT22;14820;48.682;8.890;2023-05-29T01:56:03;10.50;99.90
26224;DHT22;14820;48.682;8.890;2023-05-29T01:58:30;10.50;99.90
26224;DHT22;14820;48.682;8.890;2023-05-29T02:00:57;10.50;99.90
26224;DHT22;14820;48.682;8.890;2023-05-29T02:03:23;10.40;99.90
26224;DHT22;14820;48.682;8.890;2023-05-29T02:05:49;10.40;99.90
26224;DHT22;14820;48.682;8.890;2023-05-29T02:08:15;10.40;99.90
26224;DHT22;14820;48.682;8.890;2023-05-29T02:10:41;10.50;99.90
26224;DHT22;14820;48.682;8.890;2023-05-29T02:13:07;10.40;99.90
26224;DHT22;14820;48.682;8.890;2023-05-29T02:15:32;10.30;99.90
26224;DHT22;14820;48.682;8.890;2023-05-29T02:17:58;10.40;99.90
26224;DHT22;14820;48.682;8.890;2023-05-29T02:20:26;10.30;99.90
26224;DHT22;14820;48.682;8.890;2023-05-29T02:22:52;10.20;99.90
26224;DHT22;14820;48.682;8.890;2023-05-29T02:25:18;10.20;99.90
26224;DHT22;14820;48.682;8.890;2023-05-29T02:27:44;10.10;99.90
26224;DHT22;14820;48.682;8.890;2023-05-29T02:30:10;10.10;99.90
26224;DHT22;14820;48.682;8.890;2023-05-29T02:32:36;11.40;99.90
26224;DHT22;14820;48.682;8.890;2023-05-29T02:35:02;10.00;99.90
26224;DHT22;14820;48.682;8.890;2023-05-29T02:37:28;10.00;99.90
26224;DHT22;14820;48.682;8.890;2023-05-29T02:39:53;9.90;99.90
26224;DHT22;14820;48.682;8.890;2023-05-29T02:42:19;9.90;99.90
26224;DHT22;14820;48.682;8.890;2023-05-29T02:44:44;9.90;99.90
26224;DHT22;14820;48.682;8.890;2023-05-29T02:47:10;9.90;99.90
26224;DHT22;14820;48.682;8.890;2023-05-29T02:49:36;9.90;99.90
26224;DHT22;14820;48.682;8.890;2023-05-29T02:52:01;9.90;99.90
26224;DHT22;14820;48.682;8.890;2023-05-29T02:54:27;9.90;99.90
26224;DHT22;14820;48.682;8.890;2023-05-29T02:56:53;9.90;99.90
26224;DHT22;14820;48.682;8.890;2023-05-29T02:59:19;9.90;99.90
26224;DHT22;14820;48.682;8.890;2023-05-29T03:04:11;9.80;99.90
26224;DHT22;14820;48.682;8.890;2023-05-29T03:06:37;9.70;99.90
26224;DHT22;14820;48.682;8.890;2023-05-29T03:09:03;9.70;99.90
26224;DHT22;14820;48.682;8.890;2023-05-29T03:11:31;9.70;99.90
26224;DHT22;14820;48.682;8.890;2023-05-29T03:13:58;9.60;99.90
26224;DHT22;14820;48.682;8.890;2023-05-29T03:16:24;9.60;99.90
26224;DHT22;14820;48.682;8.890;2023-05-29T03:18:50;9.60;99.90
26224;DHT22;14820;48.682;8.890;2023-05-29T03:21:16;9.70;99.90
26224;DHT22;14820;48.682;8.890;2023-05-29T03:23:42;9.60;99.90
26224;DHT22;14820;48.682;8.890;2023-05-29T03:26:07;9.60;99.90
26224;DHT22;14820;48.682;8.890;2023-05-29T03:28:33;9.50;99.90
26224;DHT22;14820;48.682;8.890;2023-05-29T03:30:59;9.50;99.90
26224;DHT22;14820;48.682;8.890;2023-05-29T03:33:25;9.40;99.90
26224;DHT22;14820;48.682;8.890;2023-05-29T03:35:51;9.40;99.90
26224;DHT22;14820;48.682;8.890;2023-05-29T03:38:16;9.40;99.90
26224;DHT22;14820;48.682;8.890;2023-05-29T03:43:10;9.20;99.90
26224;DHT22;14820;48.682;8.890;2023-05-29T03:45:36;9.50;99.90
26224;DHT22;14820;48.682;8.890;2023-05-29T03:50:30;9.30;99.90
26224;DHT22;14820;48.682;8.890;2023-05-29T03:52:56;9.40;99.90
26224;DHT22;14820;48.682;8.890;2023-05-29T03:57:47;9.20;99.90
26224;DHT22;14820;48.682;8.890;2023-05-29T04:00:13;9.20;99.90
26224;DHT22;14820;48.682;8.890;2023-05-29T04:02:40;9.20;99.90
26224;DHT22;14820;48.682;8.890;2023-05-29T04:05:06;9.20;99.90
26224;DHT22;14820;48.682;8.890;2023-05-29T04:07:36;9.20;99.90
26224;DHT22;14820;48.682;8.890;2023-05-29T04:10:02;9.20;99.90
26224;DHT22;14820;48.682;8.890;2023-05-29T04:12:28;9.20;99.90
26224;DHT22;14820;48.682;8.890;2023-05-29T04:14:54;9.20;99.90
26224;DHT22;14820;48.682;8.890;2023-05-29T04:17:20;9.10;99.90
26224;DHT22;14820;48.682;8.890;2023-05-29T04:19:45;9.10;99.90
26224;DHT22;14820;48.682;8.890;2023-05-29T04:22:11;9.20;99.90
26224;DHT22;14820;48.682;8.890;2023-05-29T04:24:37;9.20;99.90
26224;DHT22;14820;48.682;8.890;2023-05-29T04:27:02;9.20;99.90
26224;DHT22;14820;48.682;8.890;2023-05-29T04:29:31;9.20;99.90
26224;DHT22;14820;48.682;8.890;2023-05-29T04:31:59;9.20;99.90
26224;DHT22;14820;48.682;8.890;2023-05-29T04:34:29;9.30;99.90
26224;DHT22;14820;48.682;8.890;2023-05-29T04:36:56;9.30;99.90
26224;DHT22;14820;48.682;8.890;2023-05-29T04:39:24;9.40;99.90
26224;DHT22;14820;48.682;8.890;2023-05-29T04:41:50;9.40;99.90
26224;DHT22;14820;48.682;8.890;2023-05-29T04:44:17;9.50;99.90
26224;DHT22;14820;48.682;8.890;2023-05-29T04:46:43;9.50;99.90
26224;DHT22;14820;48.682;8.890;2023-05-29T04:49:12;9.50;99.90
26224;DHT22;14820;48.682;8.890;2023-05-29T04:51:38;9.60;99.90
26224;DHT22;14820;48.682;8.890;2023-05-29T04:54:06;9.60;99.90
26224;DHT22;14820;48.682;8.890;2023-05-29T04:56:32;9.70;99.90
26224;DHT22;14820;48.682;8.890;2023-05-29T04:58:58;9.70;99.90
26224;DHT22;14820;48.682;8.890;2023-05-29T05:01:26;9.80;99.90
26224;DHT22;14820;48.682;8.890;2023-05-29T05:03:52;9.80;99.90
26224;DHT22;14820;48.682;8.890;2023-05-29T05:06:22;9.90;99.90
26224;DHT22;14820;48.682;8.890;2023-05-29T05:08:47;9.90;99.90
26224;DHT22;14820;48.682;8.890;2023-05-29T05:11:14;10.00;99.90
26224;DHT22;14820;48.682;8.890;2023-05-29T05:13:39;10.10;99.90
26224;DHT22;14820;48.682;8.890;2023-05-29T05:16:05;10.10;99.90
26224;DHT22;14820;48.682;8.890;2023-05-29T05:18:31;10.10;99.90
26224;DHT22;14820;48.682;8.890;2023-05-29T05:20:57;10.30;99.90
26224;DHT22;14820;48.682;8.890;2023-05-29T05:23:22;10.30;99.90
26224;DHT22;14820;48.682;8.890;2023-05-29T05:25:48;10.40;99.90
26224;DHT22;14820;48.682;8.890;2023-05-29T05:28:14;10.40;99.90
26224;DHT22;14820;48.682;8.890;2023-05-29T05:30:39;10.60;99.90
26224;DHT22;14820;48.682;8.890;2023-05-29T05:33:05;10.70;99.90
26224;DHT22;14820;48.682;8.890;2023-05-29T05:35:31;10.70;99.90
26224;DHT22;14820;48.682;8.890;2023-05-29T05:37:57;10.80;99.90
26224;DHT22;14820;48.682;8.890;2023-05-29T05:40:26;10.90;99.90
26224;DHT22;14820;48.682;8.890;2023-05-29T05:42:51;10.90;99.90
26224;DHT22;14820;48.682;8.890;2023-05-29T05:45:17;10.90;99.90
26224;DHT22;14820;48.682;8.890;2023-05-29T05:47:43;11.10;99.90
26224;DHT22;14820;48.682;8.890;2023-05-29T05:50:09;11.20;99.90
26224;DHT22;14820;48.682;8.890;2023-05-29T05:52:34;11.40;99.90
26224;DHT22;14820;48.682;8.890;2023-05-29T05:55:00;11.40;99.90
26224;DHT22;14820;48.682;8.890;2023-05-29T05:59:52;11.50;99.90
26224;DHT22;14820;48.682;8.890;2023-05-29T06:02:18;11.60;99.90
26224;DHT22;14820;48.682;8.890;2023-05-29T06:04:44;11.80;99.90
26224;DHT22;14820;48.682;8.890;2023-05-29T06:07:12;11.90;99.90
26224;DHT22;14820;48.682;8.890;2023-05-29T06:09:37;11.80;99.90
26224;DHT22;14820;48.682;8.890;2023-05-29T06:12:03;12.00;99.90
26224;DHT22;14820;48.682;8.890;2023-05-29T06:14:29;12.20;99.90
26224;DHT22;14820;48.682;8.890;2023-05-29T06:16:55;12.20;99.90
26224;DHT22;14820;48.682;8.890;2023-05-29T06:19:21;12.30;99.90
26224;DHT22;14820;48.682;8.890;2023-05-29T06:21:47;12.40;99.90
26224;DHT22;14820;48.682;8.890;2023-05-29T06:24:13;12.60;99.90
26224;DHT22;14820;48.682;8.890;2023-05-29T06:26:39;12.70;99.90
26224;DHT22;14820;48.682;8.890;2023-05-29T06:29:04;12.90;99.90
26224;DHT22;14820;48.682;8.890;2023-05-29T06:31:31;13.00;99.90
26224;DHT22;14820;48.682;8.890;2023-05-29T06:33:58;13.20;99.90
26224;DHT22;14820;48.682;8.890;2023-05-29T06:36:24;13.30;99.90
26224;DHT22;14820;48.682;8.890;2023-05-29T06:38:50;13.50;99.90
26224;DHT22;14820;48.682;8.890;2023-05-29T06:41:16;13.70;99.90
26224;DHT22;14820;48.682;8.890;2023-05-29T06:43:42;13.90;99.90
26224;DHT22;14820;48.682;8.890;2023-05-29T06:46:07;14.00;99.90
26224;DHT22;14820;48.682;8.890;2023-05-29T06:48:34;14.20;99.90
26224;DHT22;14820;48.682;8.890;2023-05-29T06:51:00;14.30;99.90
26224;DHT22;14820;48.682;8.890;2023-05-29T06:53:26;14.40;99.90
26224;DHT22;14820;48.682;8.890;2023-05-29T06:55:52;14.50;99.90
26224;DHT22;14820;48.682;8.890;2023-05-29T06:58:18;14.60;99.90
26224;DHT22;14820;48.682;8.890;2023-05-29T07:00:44;14.80;99.90
26224;DHT22;14820;48.682;8.890;2023-05-29T07:03:10;14.90;99.90
26224;DHT22;14820;48.682;8.890;2023-05-29T07:05:36;15.00;99.90
26224;DHT22;14820;48.682;8.890;2023-05-29T07:08:01;15.10;99.90
26224;DHT22;14820;48.682;8.890;2023-05-29T07:10:27;15.20;99.90
26224;DHT22;14820;48.682;8.890;2023-05-29T07:12:53;15.30;99.90
26224;DHT22;14820;48.682;8.890;2023-05-29T07:15:18;15.40;99.90
26224;DHT22;14820;48.682;8.890;2023-05-29T07:17:44;15.50;99.90
26224;DHT22;14820;48.682;8.890;2023-05-29T07:20:10;15.60;99.90
26224;DHT22;14820;48.682;8.890;2023-05-29T07:22:36;15.70;99.90
26224;DHT22;14820;48.682;8.890;2023-05-29T07:25:02;15.90;99.90
26224;DHT22;14820;48.682;8.890;2023-05-29T07:27:29;15.90;99.90
26224;DHT22;14820;48.682;8.890;2023-05-29T07:29:54;16.10;99.90
26224;DHT22;14820;48.682;8.890;2023-05-29T07:32:20;16.30;99.90
26224;DHT22;14820;48.682;8.890;2023-05-29T07:34:47;16.40;99.90
26224;DHT22;14820;48.682;8.890;2023-05-29T07:37:15;16.50;99.90
26224;DHT22;14820;48.682;8.890;2023-05-29T07:39:41;16.60;99.90
26224;DHT22;14820;48.682;8.890;2023-05-29T07:42:07;16.60;99.90
26224;DHT22;14820;48.682;8.890;2023-05-29T07:44:33;16.80;99.90
26224;DHT22;14820;48.682;8.890;2023-05-29T07:46:59;16.80;99.90
26224;DHT22;14820;48.682;8.890;2023-05-29T07:49:24;16.90;99.90
26224;DHT22;14820;48.682;8.890;2023-05-29T07:51:50;16.90;99.90
26224;DHT22;14820;48.682;8.890;2023-05-29T07:54:16;17.00;99.90
26224;DHT22;14820;48.682;8.890;2023-05-29T07:56:46;17.10;99.90
26224;DHT22;14820;48.682;8.890;2023-05-29T07:59:12;17.10;99.90
26224;DHT22;14820;48.682;8.890;2023-05-29T08:01:37;17.30;99.90
26224;DHT22;14820;48.682;8.890;2023-05-29T08:04:04;17.30;99.90
26224;DHT22;14820;48.682;8.890;2023-05-29T08:06:30;17.40;99.90
26224;DHT22;14820;48.682;8.890;2023-05-29T08:08:58;17.50;99.90
26224;DHT22;14820;48.682;8.890;2023-05-29T08:11:23;17.60;99.90
26224;DHT22;14820;48.682;8.890;2023-05-29T08:13:49;17.60;99.90
26224;DHT22;14820;48.682;8.890;2023-05-29T08:16:15;17.70;99.90
26224;DHT22;14820;48.682;8.890;2023-05-29T08:18:42;17.80;99.90
26224;DHT22;14820;48.682;8.890;2023-05-29T08:21:07;17.80;99.90
26224;DHT22;14820;48.682;8.890;2023-05-29T08:23:34;17.90;99.90
26224;DHT22;14820;48.682;8.890;2023-05-29T08:26:01;18.00;99.90
26224;DHT22;14820;48.682;8.890;2023-05-29T08:28:28;18.10;99.90
26224;DHT22;14820;48.682;8.890;2023-05-29T08:33:22;18.30;99.90
26224;DHT22;14820;48.682;8.890;2023-05-29T08:35:48;18.40;99.90
26224;DHT22;14820;48.682;8.890;2023-05-29T08:38:13;18.50;99.90
26224;DHT22;14820;48.682;8.890;2023-05-29T08:40:40;18.60;99.90
26224;DHT22;14820;48.682;8.890;2023-05-29T08:43:13;18.60;99.90
26224;DHT22;14820;48.682;8.890;2023-05-29T08:45:42;18.70;99.90
26224;DHT22;14820;48.682;8.890;2023-05-29T08:48:10;18.90;99.90
26224;DHT22;14820;48.682;8.890;2023-05-29T08:50:43;19.00;99.90
26224;DHT22;14820;48.682;8.890;2023-05-29T08:53:12;19.00;99.90
26224;DHT22;14820;48.682;8.890;2023-05-29T08:55:37;19.10;99.90
26224;DHT22;14820;48.682;8.890;2023-05-29T08:58:04;19.20;99.90
26224;DHT22;14820;48.682;8.890;2023-05-29T09:00:31;19.30;99.90
26224;DHT22;14820;48.682;8.890;2023-05-29T09:02:57;19.40;99.90
26224;DHT22;14820;48.682;8.890;2023-05-29T09:05:25;19.40;99.90
26224;DHT22;14820;48.682;8.890;2023-05-29T09:07:53;19.50;99.90
26224;DHT22;14820;48.682;8.890;2023-05-29T09:10:21;19.90;99.90
26224;DHT22;14820;48.682;8.890;2023-05-29T09:20:16;19.70;99.90
26224;DHT22;14820;48.682;8.890;2023-05-29T09:22:57;19.90;99.90
26224;DHT22;14820;48.682;8.890;2023-05-29T09:25:24;19.90;99.90
26224;DHT22;14820;48.682;8.890;2023-05-29T09:30:44;20.10;99.90
26224;DHT22;14820;48.682;8.890;2023-05-29T09:33:11;20.40;99.90
26224;DHT22;14820;48.682;8.890;2023-05-29T09:45:44;20.70;99.90
26224;DHT22;14820;48.682;8.890;2023-05-29T09:48:14;20.70;99.90
26224;DHT22;14820;48.682;8.890;2023-05-29T09:50:40;20.70;99.90
26224;DHT22;14820;48.682;8.890;2023-05-29T09:53:19;20.80;99.90
26224;DHT22;14820;48.682;8.890;2023-05-29T09:55:48;21.00;99.90
26224;DHT22;14820;48.682;8.890;2023-05-29T09:58:15;21.00;99.90
26224;DHT22;14820;48.682;8.890;2023-05-29T10:00:43;21.00;99.90
26224;DHT22;14820;48.682;8.890;2023-05-29T10:03:10;21.10;99.90
26224;DHT22;14820;48.682;8.890;2023-05-29T10:05:40;21.10;99.90
26224;DHT22;14820;48.682;8.890;2023-05-29T10:08:12;21.20;99.90
26224;DHT22;14820;48.682;8.890;2023-05-29T10:10:40;21.20;99.90
26224;DHT22;14820;48.682;8.890;2023-05-29T10:13:10;21.20;99.90
26224;DHT22;14820;48.682;8.890;2023-05-29T10:15:37;21.20;99.90
26224;DHT22;14820;48.682;8.890;2023-05-29T10:18:16;21.20;99.90
26224;DHT22;14820;48.682;8.890;2023-05-29T10:20:47;21.20;99.90
26224;DHT22;14820;48.682;8.890;2023-05-29T10:23:16;21.30;99.90
26224;DHT22;14820;48.682;8.890;2023-05-29T10:25:43;21.30;99.90
26224;DHT22;14820;48.682;8.890;2023-05-29T10:28:10;21.40;99.90
26224;DHT22;14820;48.682;8.890;2023-05-29T10:30:41;21.50;99.90
26224;DHT22;14820;48.682;8.890;2023-05-29T10:33:37;21.50;99.90
26224;DHT22;14820;48.682;8.890;2023-05-29T10:36:17;21.60;99.90
26224;DHT22;14820;48.682;8.890;2023-05-29T10:38:47;21.60;99.90
26224;DHT22;14820;48.682;8.890;2023-05-29T10:46:21;21.80;99.90
26224;DHT22;14820;48.682;8.890;2023-05-29T10:48:53;21.80;99.90
26224;DHT22;14820;48.682;8.890;2023-05-29T10:51:27;21.90;99.90
26224;DHT22;14820;48.682;8.890;2023-05-29T10:53:53;21.90;99.90
26224;DHT22;14820;48.682;8.890;2023-05-29T10:56:23;22.00;99.90
26224;DHT22;14820;48.682;8.890;2023-05-29T10:58:55;22.10;99.90
26224;DHT22;14820;48.682;8.890;2023-05-29T11:01:22;22.20;99.90
26224;DHT22;14820;48.682;8.890;2023-05-29T11:03:49;22.20;99.90
26224;DHT22;14820;48.682;8.890;2023-05-29T11:06:21;22.30;99.90
26224;DHT22;14820;48.682;8.890;2023-05-29T11:08:55;22.30;99.90
26224;DHT22;14820;48.682;8.890;2023-05-29T11:13:54;22.50;99.90
26224;DHT22;14820;48.682;8.890;2023-05-29T11:18:55;22.60;99.90
26224;DHT22;14820;48.682;8.890;2023-05-29T11:24:06;22.50;99.30
26224;DHT22;14820;48.682;8.890;2023-05-29T11:26:33;22.50;99.90
26224;DHT22;14820;48.682;8.890;2023-05-29T11:29:00;22.40;99.40
26224;DHT22;14820;48.682;8.890;2023-05-29T11:31:27;22.40;99.30
26224;DHT22;14820;48.682;8.890;2023-05-29T11:33:54;22.40;99.70
26224;DHT22;14820;48.682;8.890;2023-05-29T11:36:23;22.50;98.10
26224;DHT22;14820;48.682;8.890;2023-05-29T11:38:51;22.50;98.30
26224;DHT22;14820;48.682;8.890;2023-05-29T11:41:17;22.60;97.00
26224;DHT22;14820;48.682;8.890;2023-05-29T11:43:43;22.60;96.80
26224;DHT22;14820;48.682;8.890;2023-05-29T11:46:26;22.60;95.50
26224;DHT22;14820;48.682;8.890;2023-05-29T11:48:53;22.60;95.30
26224;DHT22;14820;48.682;8.890;2023-05-29T11:51:19;22.70;96.20
26224;DHT22;14820;48.682;8.890;2023-05-29T11:53:47;22.70;95.60
26224;DHT22;14820;48.682;8.890;2023-05-29T11:56:13;22.80;95.20
26224;DHT22;14820;48.682;8.890;2023-05-29T11:58:40;22.80;93.70
26224;DHT22;14820;48.682;8.890;2023-05-29T12:01:08;22.90;94.90
26224;DHT22;14820;48.682;8.890;2023-05-29T12:03:41;22.90;93.60
26224;DHT22;14820;48.682;8.890;2023-05-29T12:06:08;22.90;93.60
26224;DHT22;14820;48.682;8.890;2023-05-29T12:08:36;23.00;92.70
26224;DHT22;14820;48.682;8.890;2023-05-29T12:11:02;23.10;92.60
26224;DHT22;14820;48.682;8.890;2023-05-29T12:13:28;23.10;91.60
26224;DHT22;14820;48.682;8.890;2023-05-29T12:15:59;23.00;90.30
26224;DHT22;14820;48.682;8.890;2023-05-29T12:18:25;23.00;90.70
26224;DHT22;14820;48.682;8.890;2023-05-29T12:20:57;23.00;91.00
26224;DHT22;14820;48.682;8.890;2023-05-29T12:23:23;23.10;89.50
26224;DHT22;14820;48.682;8.890;2023-05-29T12:25:51;23.00;87.10
26224;DHT22;14820;48.682;8.890;2023-05-29T12:28:17;23.00;88.00
26224;DHT22;14820;48.682;8.890;2023-05-29T12:30:44;23.10;88.60
26224;DHT22;14820;48.682;8.890;2023-05-29T12:33:29;23.20;89.10
26224;DHT22;14820;48.682;8.890;2023-05-29T12:36:05;23.20;87.90
26224;DHT22;14820;48.682;8.890;2023-05-29T12:38:49;23.20;86.60
26224;DHT22;14820;48.682;8.890;2023-05-29T12:41:34;23.30;87.60
26224;DHT22;14820;48.682;8.890;2023-05-29T12:44:03;23.30;87.00
26224;DHT22;14820;48.682;8.890;2023-05-29T12:46:38;23.40;85.10
26224;DHT22;14820;48.682;8.890;2023-05-29T12:49:14;23.40;84.00
26224;DHT22;14820;48.682;8.890;2023-05-29T12:51:44;23.40;83.90
26224;DHT22;14820;48.682;8.890;2023-05-29T12:54:15;23.40;82.60
26224;DHT22;14820;48.682;8.890;2023-05-29T12:56:41;23.40;80.10
26224;DHT22;14820;48.682;8.890;2023-05-29T12:59:10;23.50;79.10
26224;DHT22;14820;48.682;8.890;2023-05-29T13:01:37;23.50;79.40
26224;DHT22;14820;48.682;8.890;2023-05-29T13:04:06;23.50;81.70
26224;DHT22;14820;48.682;8.890;2023-05-29T13:06:36;23.60;80.20
26224;DHT22;14820;48.682;8.890;2023-05-29T13:09:02;23.60;77.90
26224;DHT22;14820;48.682;8.890;2023-05-29T13:11:28;23.50;78.00
26224;DHT22;14820;48.682;8.890;2023-05-29T13:13:53;23.60;76.00
26224;DHT22;14820;48.682;8.890;2023-05-29T13:16:19;23.60;77.30
26224;DHT22;14820;48.682;8.890;2023-05-29T13:18:45;23.60;77.00
26224;DHT22;14820;48.682;8.890;2023-05-29T13:21:10;23.60;75.20
26224;DHT22;14820;48.682;8.890;2023-05-29T13:23:36;23.50;73.50
26224;DHT22;14820;48.682;8.890;2023-05-29T13:26:03;23.50;75.10
26224;DHT22;14820;48.682;8.890;2023-05-29T13:28:29;23.50;74.60
26224;DHT22;14820;48.682;8.890;2023-05-29T13:30:55;23.50;74.90
26224;DHT22;14820;48.682;8.890;2023-05-29T13:33:20;23.50;74.50
26224;DHT22;14820;48.682;8.890;2023-05-29T13:35:46;23.50;74.30
26224;DHT22;14820;48.682;8.890;2023-05-29T13:38:12;23.60;74.50
26224;DHT22;14820;48.682;8.890;2023-05-29T13:40:38;23.60;74.70
26224;DHT22;14820;48.682;8.890;2023-05-29T13:43:03;23.70;73.50
26224;DHT22;14820;48.682;8.890;2023-05-29T13:45:29;23.70;72.70
26224;DHT22;14820;48.682;8.890;2023-05-29T13:47:55;23.60;71.10
26224;DHT22;14820;48.682;8.890;2023-05-29T13:50:21;23.50;72.00
26224;DHT22;14820;48.682;8.890;2023-05-29T13:52:49;23.50;72.00
26224;DHT22;14820;48.682;8.890;2023-05-29T13:55:14;23.50;73.50
26224;DHT22;14820;48.682;8.890;2023-05-29T13:57:40;23.50;72.00
26224;DHT22;14820;48.682;8.890;2023-05-29T14:00:09;23.50;70.30
26224;DHT22;14820;48.682;8.890;2023-05-29T14:02:35;23.40;69.60
26224;DHT22;14820;48.682;8.890;2023-05-29T14:05:01;23.40;72.80
26224;DHT22;14820;48.682;8.890;2023-05-29T14:07:26;23.40;72.00
26224;DHT22;14820;48.682;8.890;2023-05-29T14:09:52;23.40;72.50
26224;DHT22;14820;48.682;8.890;2023-05-29T14:12:18;23.40;72.90
26224;DHT22;14820;48.682;8.890;2023-05-29T14:14:44;23.40;71.60
26224;DHT22;14820;48.682;8.890;2023-05-29T14:17:09;23.50;71.70
26224;DHT22;14820;48.682;8.890;2023-05-29T14:19:35;23.50;70.30
26224;DHT22;14820;48.682;8.890;2023-05-29T14:22:01;23.50;69.10
26224;DHT22;14820;48.682;8.890;2023-05-29T14:24:27;23.40;69.80
26224;DHT22;14820;48.682;8.890;2023-05-29T14:26:52;23.40;69.00
26224;DHT22;14820;48.682;8.890;2023-05-29T14:29:18;23.50;70.30
26224;DHT22;14820;48.682;8.890;2023-05-29T14:31:44;23.40;70.20
26224;DHT22;14820;48.682;8.890;2023-05-29T14:34:11;23.50;71.60
26224;DHT22;14820;48.682;8.890;2023-05-29T14:36:37;23.50;71.40
26224;DHT22;14820;48.682;8.890;2023-05-29T14:39:03;23.50;70.70
26224;DHT22;14820;48.682;8.890;2023-05-29T14:41:29;23.50;70.30
26224;DHT22;14820;48.682;8.890;2023-05-29T14:43:55;23.50;68.80
26224;DHT22;14820;48.682;8.890;2023-05-29T14:46:24;23.40;68.50
26224;DHT22;14820;48.682;8.890;2023-05-29T14:48:51;23.40;68.90
26224;DHT22;14820;48.682;8.890;2023-05-29T14:51:17;23.40;69.20
26224;DHT22;14820;48.682;8.890;2023-05-29T14:53:44;23.40;70.20
26224;DHT22;14820;48.682;8.890;2023-05-29T14:56:10;23.40;71.20
26224;DHT22;14820;48.682;8.890;2023-05-29T14:58:35;23.40;70.80
26224;DHT22;14820;48.682;8.890;2023-05-29T15:01:01;23.40;70.00
26224;DHT22;14820;48.682;8.890;2023-05-29T15:03:27;23.40;68.50
26224;DHT22;14820;48.682;8.890;2023-05-29T15:05:54;23.40;69.00
26224;DHT22;14820;48.682;8.890;2023-05-29T15:08:20;23.40;70.10
26224;DHT22;14820;48.682;8.890;2023-05-29T15:10:45;23.40;70.50
26224;DHT22;14820;48.682;8.890;2023-05-29T15:13:11;23.40;69.50
26224;DHT22;14820;48.682;8.890;2023-05-29T15:15:37;23.40;69.50
26224;DHT22;14820;48.682;8.890;2023-05-29T15:18:02;23.40;70.30
26224;DHT22;14820;48.682;8.890;2023-05-29T15:20:28;23.40;70.90
26224;DHT22;14820;48.682;8.890;2023-05-29T15:22:54;23.40;70.10
26224;DHT22;14820;48.682;8.890;2023-05-29T15:25:21;23.40;69.90
26224;DHT22;14820;48.682;8.890;2023-05-29T15:27:47;23.40;69.70
26224;DHT22;14820;48.682;8.890;2023-05-29T15:30:14;23.40;71.60
26224;DHT22;14820;48.682;8.890;2023-05-29T15:32:41;23.40;71.80
26224;DHT22;14820;48.682;8.890;2023-05-29T15:35:08;23.40;72.50
26224;DHT22;14820;48.682;8.890;2023-05-29T15:37:34;23.40;71.60
26224;DHT22;14820;48.682;8.890;2023-05-29T15:40:03;23.40;71.50
26224;DHT22;14820;48.682;8.890;2023-05-29T15:42:29;23.40;71.40
26224;DHT22;14820;48.682;8.890;2023-05-29T15:44:54;23.30;71.20
26224;DHT22;14820;48.682;8.890;2023-05-29T15:47:20;23.30;71.10
26224;DHT22;14820;48.682;8.890;2023-05-29T15:49:46;23.30;69.40
26224;DHT22;14820;48.682;8.890;2023-05-29T15:52:12;23.30;70.30
26224;DHT22;14820;48.682;8.890;2023-05-29T15:54:38;23.30;71.20
26224;DHT22;14820;48.682;8.890;2023-05-29T15:57:05;23.30;70.40
26224;DHT22;14820;48.682;8.890;2023-05-29T15:59:34;23.20;70.70
26224;DHT22;14820;48.682;8.890;2023-05-29T16:02:01;23.30;72.20
26224;DHT22;14820;48.682;8.890;2023-05-29T16:04:28;23.30;72.20
26224;DHT22;14820;48.682;8.890;2023-05-29T16:06:54;23.20;72.20
26224;DHT22;14820;48.682;8.890;2023-05-29T16:09:19;23.20;72.80
26224;DHT22;14820;48.682;8.890;2023-05-29T16:11:45;23.20;71.60
26224;DHT22;14820;48.682;8.890;2023-05-29T16:14:11;23.20;71.90
26224;DHT22;14820;48.682;8.890;2023-05-29T16:16:37;23.20;72.90
26224;DHT22;14820;48.682;8.890;2023-05-29T16:19:04;23.20;73.00
26224;DHT22;14820;48.682;8.890;2023-05-29T16:21:31;23.20;73.50
26224;DHT22;14820;48.682;8.890;2023-05-29T16:23:58;23.20;73.80
26224;DHT22;14820;48.682;8.890;2023-05-29T16:26:27;23.10;73.90
26224;DHT22;14820;48.682;8.890;2023-05-29T16:28:58;23.10;72.70
26224;DHT22;14820;48.682;8.890;2023-05-29T16:31:24;23.10;74.00
26224;DHT22;14820;48.682;8.890;2023-05-29T16:33:51;23.10;74.10
26224;DHT22;14820;48.682;8.890;2023-05-29T16:36:18;23.00;73.50